Time;durP1;ratioP1;P1;durP2;ratioP2;P2;SDS_P1;SDS_P2;PMS_P1;PMS_P2;Temp;Humidity;BMP_temperature;BMP_pressure;BME280_temperature;BME280_humidity;BME280_pressure;Samples;Min_cycle;Max_cycle;Signal;HPM_P1;HPM_P2
2022/07/07 00:00:12;;;;;;;2.38;0.80;;;24.60;50.40;;;;;;7397355;19;20074;-80
2022/07/07 00:02:41;;;;;;;2.33;0.80;;;24.60;50.40;;;;;;7398214;19;20029;-80
2022/07/07 00:05:10;;;;;;;1.90;1.10;;;24.60;50.40;;;;;;7399359;19;20018;-80
2022/07/07 00:07:39;;;;;;;1.90;1.02;;;24.60;50.30;;;;;;7398324;19;20023;-80
2022/07/07 00:10:09;;;;;;;2.22;0.90;;;24.60;50.20;;;;;;7397489;19;20039;-81
2022/07/07 00:12:40;;;;;;;1.60;1.00;;;24.60;50.30;;;;;;7395897;19;20082;-79
2022/07/07 00:15:11;;;;;;;2.97;1.00;;;24.60;50.30;;;;;;7396543;19;20093;-80
2022/07/07 00:17:40;;;;;;;1.58;1.17;;;24.60;50.40;;;;;;7395775;19;20485;-80
2022/07/07 00:20:10;;;;;;;1.10;1.00;;;24.60;50.40;;;;;;7398327;19;20052;-80
2022/07/07 00:22:38;;;;;;;1.10;1.10;;;24.60;50.50;;;;;;7397333;19;20019;-80
2022/07/07 00:25:08;;;;;;;1.77;1.00;;;24.50;50.60;;;;;;7394690;19;20019;-80
2022/07/07 00:27:40;;;;;;;2.88;1.10;;;24.40;50.70;;;;;;7396365;19;20035;-80
2022/07/07 00:30:10;;;;;;;1.63;0.88;;;24.40;50.90;;;;;;7398403;19;20022;-80
2022/07/07 00:32:38;;;;;;;2.05;1.02;;;24.30;50.90;;;;;;7395224;19;20049;-80
2022/07/07 00:35:09;;;;;;;1.35;1.10;;;24.20;51.10;;;;;;7398661;19;20046;-80
2022/07/07 00:37:37;;;;;;;3.47;1.10;;;24.20;51.20;;;;;;7395804;19;20469;-81
2022/07/07 00:40:08;;;;;;;5.93;1.10;;;24.20;51.40;;;;;;7395543;19;20093;-81
2022/07/07 00:42:39;;;;;;;3.60;1.30;;;24.10;51.40;;;;;;7397013;19;20031;-82
2022/07/07 00:45:09;;;;;;;1.70;1.15;;;24.10;51.50;;;;;;7397298;19;20600;-81
2022/07/07 00:47:40;;;;;;;2.63;1.20;;;24.10;51.50;;;;;;7395649;19;20011;-81
2022/07/07 00:50:10;;;;;;;1.65;1.05;;;24.10;51.50;;;;;;7397482;19;20011;-81
2022/07/07 00:52:39;;;;;;;5.88;1.00;;;24.10;51.60;;;;;;7397047;19;20039;-81
2022/07/07 00:55:10;;;;;;;4.15;1.10;;;24.10;51.70;;;;;;7397279;19;20042;-81
2022/07/07 00:57:42;;;;;;;1.42;1.17;;;24.00;51.60;;;;;;7397541;19;20028;-81
2022/07/07 01:00:13;;;;;;;2.05;1.30;;;24.00;51.70;;;;;;7393449;19;20027;-81
2022/07/07 01:02:45;;;;;;;1.40;1.00;;;24.00;51.60;;;;;;7395545;19;20014;-81
2022/07/07 01:05:16;;;;;;;1.50;1.00;;;24.00;51.70;;;;;;7395459;19;20029;-81
2022/07/07 01:07:46;;;;;;;1.95;1.23;;;24.00;51.70;;;;;;7400775;19;20081;-82
2022/07/07 01:10:15;;;;;;;2.25;1.02;;;24.00;51.70;;;;;;7403588;19;20015;-82
2022/07/07 01:12:47;;;;;;;2.20;1.05;;;24.00;51.80;;;;;;7400781;19;20036;-82
2022/07/07 01:15:16;;;;;;;1.80;1.13;;;24.00;51.70;;;;;;7402819;19;20018;-83
2022/07/07 01:17:45;;;;;;;2.22;1.00;;;23.90;51.60;;;;;;7400823;19;20023;-80
2022/07/07 01:20:15;;;;;;;5.18;1.30;;;23.90;51.70;;;;;;7402379;19;20446;-81
2022/07/07 01:22:50;;;;;;;1.27;1.05;;;23.80;51.90;;;;;;7402578;19;20040;-79
2022/07/07 01:25:19;;;;;;;4.20;1.20;;;23.80;52.00;;;;;;7402188;19;20046;-80
2022/07/07 01:27:49;;;;;;;2.47;1.17;;;23.80;52.00;;;;;;7399693;19;20799;-81
2022/07/07 01:30:18;;;;;;;2.55;1.10;;;23.80;52.00;;;;;;7399846;19;20023;-80
2022/07/07 01:32:47;;;;;;;1.83;1.13;;;23.90;52.00;;;;;;7402513;19;20093;-80
2022/07/07 01:35:17;;;;;;;2.92;1.08;;;23.90;51.90;;;;;;7403115;19;20031;-80
2022/07/07 01:37:49;;;;;;;1.58;1.10;;;23.90;52.00;;;;;;7400243;19;20035;-80
2022/07/07 01:40:18;;;;;;;3.85;1.10;;;23.80;52.00;;;;;;7401249;19;20018;-80
2022/07/07 01:42:46;;;;;;;4.07;1.05;;;23.70;52.10;;;;;;7401681;19;20383;-80
2022/07/07 01:45:15;;;;;;;2.25;1.15;;;23.70;52.30;;;;;;7399147;19;20056;-81
2022/07/07 01:47:44;;;;;;;1.23;1.10;;;23.60;52.40;;;;;;7403136;19;20010;-81
2022/07/07 01:50:14;;;;;;;1.33;1.20;;;23.60;52.50;;;;;;7404713;19;20380;-81
2022/07/07 01:52:46;;;;;;;2.95;1.10;;;23.50;52.50;;;;;;7401471;19;20464;-80
2022/07/07 01:55:17;;;;;;;2.15;1.25;;;23.50;52.50;;;;;;7402295;19;20090;-80
2022/07/07 01:57:45;;;;;;;;;;;23.50;52.50;;;;;;7402023;19;20022;-80
2022/07/07 02:00:16;;;;;;;4.93;1.30;;;23.60;52.60;;;;;;7399928;19;19926;-80
2022/07/07 02:02:45;;;;;;;2.20;1.30;;;23.50;52.50;;;;;;7398042;19;20026;-81
2022/07/07 02:05:14;;;;;;;3.83;1.10;;;23.50;52.40;;;;;;7400878;19;20074;-80
2022/07/07 02:07:45;;;;;;;2.00;1.10;;;23.50;52.40;;;;;;7397984;19;20019;-80
2022/07/07 02:11:12;;;;;;;2.90;1.35;;;23.50;52.30;;;;;;7403782;19;20039;-80
2022/07/07 02:13:07;;;;;;;3.33;1.23;;;23.40;52.20;;;;;;7400269;19;20015;-81
2022/07/07 02:15:36;;;;;;;2.88;1.10;;;23.40;52.10;;;;;;7401130;19;20018;-80
2022/07/07 02:18:05;;;;;;;1.63;1.10;;;23.40;52.20;;;;;;7398799;19;20041;-80
2022/07/07 02:20:33;;;;;;;1.40;1.20;;;23.40;52.30;;;;;;7399245;19;20019;-81
2022/07/07 02:23:02;;;;;;;2.53;1.10;;;23.30;52.40;;;;;;7403352;19;20334;-81
2022/07/07 02:25:34;;;;;;;4.80;1.40;;;23.30;52.70;;;;;;7402795;19;20018;-81
2022/07/07 02:28:02;;;;;;;;;;;23.20;52.70;;;;;;7401498;19;20352;-80
2022/07/07 02:30:31;;;;;;;1.85;1.23;;;23.30;52.80;;;;;;7399919;19;20366;-80
2022/07/07 02:33:00;;;;;;;1.58;1.20;;;23.20;52.70;;;;;;7401612;19;20107;-80
2022/07/07 02:35:29;;;;;;;8.93;1.70;;;23.20;52.80;;;;;;7401713;19;20026;-81
2022/07/07 02:37:58;;;;;;;3.08;1.20;;;23.20;52.70;;;;;;7400985;19;20026;-80
2022/07/07 02:40:33;;;;;;;1.98;1.40;;;23.20;52.70;;;;;;7399527;19;20040;-80
2022/07/07 02:43:01;;;;;;;3.17;1.20;;;23.20;52.90;;;;;;7401347;19;20042;-80
2022/07/07 02:45:30;;;;;;;5.50;1.63;;;23.10;52.90;;;;;;7401693;19;20010;-80
2022/07/07 02:47:59;;;;;;;1.50;1.30;;;23.00;53.10;;;;;;7397867;19;20022;-80
2022/07/07 02:50:28;;;;;;;4.57;1.50;;;23.00;53.50;;;;;;7401957;19;20019;-80
2022/07/07 02:52:57;;;;;;;1.55;1.45;;;22.90;53.60;;;;;;7404031;19;20046;-79
2022/07/07 02:55:26;;;;;;;2.22;1.30;;;22.90;53.60;;;;;;7401212;19;20038;-80
2022/07/07 02:57:58;;;;;;;2.15;1.40;;;22.80;53.70;;;;;;7401908;19;20442;-80
2022/07/07 03:00:26;;;;;;;;;;;22.70;54.30;;;;;;7402715;19;20030;-80
2022/07/07 03:02:55;;;;;;;3.67;1.42;;;22.80;53.70;;;;;;7399462;19;20252;-80
2022/07/07 03:05:25;;;;;;;2.15;1.52;;;22.70;53.70;;;;;;7399410;19;20035;-80
2022/07/07 03:07:54;;;;;;;2.08;1.40;;;22.70;54.00;;;;;;7396843;19;20433;-80
2022/07/07 03:10:23;;;;;;;2.58;1.50;;;22.70;54.00;;;;;;7397133;19;20026;-80
2022/07/07 03:12:52;;;;;;;1.85;1.40;;;22.70;54.00;;;;;;7398953;19;20019;-80
2022/07/07 03:15:24;;;;;;;3.80;1.60;;;22.70;53.80;;;;;;7399494;19;20759;-80
2022/07/07 03:17:52;;;;;;;1.83;1.50;;;22.80;53.90;;;;;;7398262;19;20015;-80
2022/07/07 03:20:22;;;;;;;4.00;1.52;;;22.80;53.80;;;;;;7400761;19;20018;-80
2022/07/07 03:22:51;;;;;;;3.75;1.95;;;22.80;53.60;;;;;;7400916;19;20030;-80
2022/07/07 03:25:20;;;;;;;3.22;1.90;;;22.80;53.70;;;;;;7395897;19;20015;-80
2022/07/07 03:27:49;;;;;;;1.92;1.48;;;22.80;53.70;;;;;;7397003;19;20042;-80
2022/07/07 03:30:18;;;;;;;3.08;1.98;;;22.80;53.80;;;;;;7395053;19;20014;-81
2022/07/07 03:32:49;;;;;;;3.47;2.58;;;22.70;54.00;;;;;;7398541;19;20031;-81
2022/07/07 03:35:18;;;;;;;;;;;22.70;54.30;;;;;;7401363;19;20017;-81
2022/07/07 03:37:46;;;;;;;6.03;2.50;;;22.70;55.20;;;;;;7398367;19;19985;-81
2022/07/07 03:40:15;;;;;;;4.20;2.13;;;22.60;54.50;;;;;;7399473;19;20028;-80
2022/07/07 03:42:45;;;;;;;3.53;2.50;;;22.50;54.70;;;;;;7399218;19;20684;-81
2022/07/07 03:45:14;;;;;;;4.78;2.17;;;22.50;55.10;;;;;;7396567;19;20029;-80
2022/07/07 03:47:43;;;;;;;5.32;2.75;;;22.40;55.10;;;;;;7397159;19;20057;-80
2022/07/07 03:50:14;;;;;;;4.53;2.35;;;22.40;55.40;;;;;;7401548;19;20022;-80
2022/07/07 03:52:43;;;;;;;5.35;2.45;;;22.40;55.30;;;;;;7399125;19;20437;-81
2022/07/07 03:55:12;;;;;;;4.85;2.10;;;22.40;55.60;;;;;;7397090;19;20452;-80
2022/07/07 03:57:41;;;;;;;2.13;1.70;;;22.40;55.40;;;;;;7395265;19;20044;-80
2022/07/07 04:00:12;;;;;;;4.00;2.13;;;22.50;54.90;;;;;;7397705;19;20031;-80
2022/07/07 04:02:41;;;;;;;;;;;22.50;54.70;;;;;;7397703;19;20046;-81
2022/07/07 04:05:11;;;;;;;2.15;1.65;;;22.60;54.60;;;;;;7399531;19;19935;-81
2022/07/07 04:07:42;;;;;;;2.70;1.80;;;22.70;54.40;;;;;;7398837;19;20034;-80
2022/07/07 04:10:11;;;;;;;3.47;2.20;;;22.70;54.30;;;;;;7395684;19;20015;-82
2022/07/07 04:12:40;;;;;;;4.85;1.80;;;22.70;54.80;;;;;;7398366;19;20014;-82
2022/07/07 04:15:10;;;;;;;5.90;1.90;;;22.70;54.30;;;;;;7397047;19;20395;-82
2022/07/07 04:17:39;;;;;;;3.05;1.65;;;22.70;54.00;;;;;;7400653;19;20019;-82
2022/07/07 04:20:10;;;;;;;2.95;1.77;;;22.70;54.00;;;;;;7402284;19;20335;-82
2022/07/07 04:22:39;;;;;;;4.27;1.87;;;22.70;54.00;;;;;;7395896;19;20349;-81
2022/07/07 04:25:11;;;;;;;3.75;2.03;;;22.70;54.10;;;;;;7396610;19;20015;-81
2022/07/07 04:27:40;;;;;;;2.88;1.73;;;22.70;54.10;;;;;;7398943;19;20029;-82
2022/07/07 04:30:11;;;;;;;4.38;1.60;;;22.60;54.30;;;;;;7396810;19;20026;-82
2022/07/07 04:32:40;;;;;;;4.00;2.10;;;22.60;54.20;;;;;;7398404;19;20016;-82
2022/07/07 04:35:10;;;;;;;2.42;1.88;;;22.60;54.30;;;;;;7397573;19;20255;-81
2022/07/07 04:37:39;;;;;;;3.53;1.98;;;22.60;54.30;;;;;;7397351;19;20035;-82
2022/07/07 04:40:11;;;;;;;5.93;2.10;;;22.60;54.40;;;;;;7396390;19;20026;-82
2022/07/07 04:42:41;;;;;;;8.73;2.33;;;22.70;54.50;;;;;;7397728;19;20022;-86
2022/07/07 04:45:12;;;;;;;3.55;2.08;;;22.70;54.60;;;;;;7395386;19;20031;-82
2022/07/07 04:47:42;;;;;;;4.13;2.13;;;22.70;54.60;;;;;;7398644;19;20014;-80
2022/07/07 04:50:15;;;;;;;5.72;2.17;;;22.80;54.30;;;;;;7401041;19;20014;-79
2022/07/07 04:52:52;;;;;;;5.38;2.20;;;22.80;54.50;;;;;;7393114;19;20018;-82
2022/07/07 04:55:24;;;;;;;5.53;2.13;;;22.80;54.60;;;;;;7391897;19;20467;-80
2022/07/07 04:58:06;;;;;;;4.35;1.95;;;22.80;54.90;;;;;;7392379;19;20022;-82
2022/07/07 05:00:51;;;;;;;4.55;2.47;;;22.80;54.90;;;;;;7391909;19;20094;-81
2022/07/07 05:03:25;;;;;;;5.45;2.30;;;22.90;55.10;;;;;;7390755;19;20022;-81
2022/07/07 05:05:54;;;;;;;8.10;2.53;;;22.90;55.30;;;;;;7387197;19;20042;-80
2022/07/07 05:08:23;;;;;;;4.90;2.80;;;22.90;55.40;;;;;;7385908;19;20026;-81
2022/07/07 05:10:55;;;;;;;11.52;3.42;;;22.70;55.80;;;;;;7388955;19;20956;-81
2022/07/07 05:13:25;;;;;;;7.97;2.97;;;22.60;56.20;;;;;;7389387;19;20369;-80
2022/07/07 05:15:55;;;;;;;6.90;3.05;;;22.50;56.70;;;;;;7392253;19;20022;-80
2022/07/07 05:18:24;;;;;;;7.97;3.28;;;22.40;57.00;;;;;;7393374;19;20019;-79
2022/07/07 05:20:53;;;;;;;10.55;3.45;;;22.30;57.20;;;;;;7388699;19;20591;-78
2022/07/07 05:23:25;;;;;;;10.30;3.47;;;22.20;57.80;;;;;;7395620;19;20117;-81
2022/07/07 05:25:57;;;;;;;5.88;2.80;;;22.20;58.00;;;;;;7395810;19;20014;-84
2022/07/07 05:28:41;;;;;;;7.18;3.42;;;22.10;58.30;;;;;;7395387;19;20049;-86
2022/07/07 05:31:41;;;;;;;6.47;3.03;;;22.10;58.30;;;;;;7391271;19;20109;-79
2022/07/07 05:34:11;;;;;;;5.95;3.05;;;22.20;58.10;;;;;;7390558;19;20015;-82
2022/07/07 05:36:48;;;;;;;4.93;2.60;;;22.20;58.00;;;;;;7395215;19;20478;-87
2022/07/07 05:39:18;;;;;;;8.43;3.15;;;22.20;58.00;;;;;;7389531;19;20082;-80
2022/07/07 05:41:50;;;;;;;5.85;3.22;;;22.20;58.00;;;;;;7385126;19;20775;-80
2022/07/07 05:44:20;;;;;;;8.20;3.17;;;22.20;58.20;;;;;;7391997;19;20018;-82
2022/07/07 05:46:48;;;;;;;7.57;3.00;;;22.20;58.20;;;;;;7387492;19;20086;-79
2022/07/07 05:49:17;;;;;;;11.02;3.20;;;22.20;58.20;;;;;;7385266;19;20018;-79
2022/07/07 05:51:46;;;;;;;4.78;2.67;;;22.20;58.20;;;;;;7388089;19;20082;-79
2022/07/07 05:54:15;;;;;;;11.80;3.78;;;22.20;58.40;;;;;;7394992;19;20644;-79
2022/07/07 05:56:44;;;;;;;21.98;4.18;;;22.10;58.40;;;;;;7394841;19;20020;-79
2022/07/07 05:59:15;;;;;;;27.30;4.80;;;22.10;58.70;;;;;;7395286;19;20481;-81
2022/07/07 06:01:44;;;;;;;;;;;22.00;58.80;;;;;;7397159;19;20028;-80
2022/07/07 06:04:12;;;;;;;21.48;3.80;;;22.10;59.20;;;;;;7394179;19;20419;-79
2022/07/07 06:06:41;;;;;;;20.67;4.07;;;22.10;58.80;;;;;;7396490;19;20048;-79
2022/07/07 06:09:10;;;;;;;15.07;3.50;;;22.20;58.70;;;;;;7395300;19;20026;-80
2022/07/07 06:11:39;;;;;;;12.95;3.58;;;22.30;58.70;;;;;;7395169;19;20397;-78
2022/07/07 06:14:10;;;;;;;14.55;3.40;;;22.40;58.50;;;;;;7397333;19;20743;-79
2022/07/07 06:16:45;;;;;;;11.00;3.28;;;22.40;58.30;;;;;;7395869;19;20468;-77
2022/07/07 06:19:15;;;;;;;6.75;2.72;;;22.50;58.20;;;;;;7396756;19;20010;-77
2022/07/07 06:21:45;;;;;;;6.33;2.67;;;22.40;58.30;;;;;;7397976;19;20445;-77
2022/07/07 06:24:14;;;;;;;4.65;2.40;;;22.50;58.50;;;;;;7397282;19;21603;-76
2022/07/07 06:26:43;;;;;;;8.43;2.50;;;22.50;58.40;;;;;;7398311;19;20038;-76
2022/07/07 06:29:12;;;;;;;6.13;2.85;;;22.60;58.40;;;;;;7399429;19;20070;-76
2022/07/07 06:31:40;;;;;;;6.32;2.45;;;22.60;58.40;;;;;;7394451;19;20090;-76
2022/07/07 06:34:11;;;;;;;8.38;2.70;;;22.60;58.40;;;;;;7397342;19;20018;-76
2022/07/07 06:36:40;;;;;;;5.07;2.40;;;22.60;58.60;;;;;;7397275;19;20025;-76
2022/07/07 06:39:09;;;;;;;7.90;2.50;;;22.60;58.70;;;;;;7394911;19;20078;-77
2022/07/07 06:41:39;;;;;;;8.13;2.47;;;22.60;58.30;;;;;;7393445;19;20026;-76
2022/07/07 06:44:09;;;;;;;6.78;2.35;;;22.40;58.70;;;;;;7397751;19;20022;-76
2022/07/07 06:46:39;;;;;;;3.72;2.28;;;22.40;58.70;;;;;;7395145;19;20769;-77
2022/07/07 06:49:12;;;;;;;8.45;2.83;;;22.50;58.70;;;;;;7395385;19;20100;-77
2022/07/07 06:51:41;;;;;;;7.22;2.47;;;22.40;58.90;;;;;;7394868;19;20010;-76
2022/07/07 06:54:10;;;;;;;9.13;2.47;;;22.50;58.90;;;;;;7396820;19;20530;-77
2022/07/07 06:56:38;;;;;;;9.98;2.45;;;22.40;58.80;;;;;;7395159;19;20110;-77
2022/07/07 06:59:07;;;;;;;9.77;2.35;;;22.30;59.00;;;;;;7393476;19;20836;-77
2022/07/07 07:01:36;;;;;;;9.20;2.63;;;22.40;59.00;;;;;;7392865;19;20516;-76
2022/07/07 07:04:07;;;;;;;8.10;2.00;;;22.50;58.80;;;;;;7395092;19;20094;-77
2022/07/07 07:06:38;;;;;;;5.53;2.20;;;22.50;58.80;;;;;;7395547;19;20758;-77
2022/07/07 07:09:06;;;;;;;;;;;22.60;58.80;;;;;;7396052;19;20098;-77
2022/07/07 07:11:35;;;;;;;4.32;2.10;;;22.70;58.60;;;;;;7395515;19;19925;-77
2022/07/07 07:14:04;;;;;;;6.75;2.33;;;22.70;58.50;;;;;;7394884;19;20089;-77
2022/07/07 07:16:33;;;;;;;9.45;2.20;;;22.60;58.70;;;;;;7396663;19;20029;-77
2022/07/07 07:19:02;;;;;;;6.55;2.20;;;22.70;58.30;;;;;;7395856;19;20026;-77
2022/07/07 07:21:31;;;;;;;6.45;2.10;;;22.90;58.30;;;;;;7395799;19;20026;-77
2022/07/07 07:24:02;;;;;;;9.55;2.40;;;22.90;58.10;;;;;;7395873;19;20043;-77
2022/07/07 07:26:30;;;;;;;;;;;23.20;57.80;;;;;;7392929;19;20015;-77
2022/07/07 07:28:59;;;;;;;7.25;2.25;;;23.30;57.70;;;;;;7395179;19;19933;-77
2022/07/07 07:31:28;;;;;;;9.68;2.17;;;23.30;57.30;;;;;;7392776;19;20015;-77
2022/07/07 07:33:56;;;;;;;9.10;2.30;;;23.30;57.80;;;;;;7394663;19;20624;-77
2022/07/07 07:36:25;;;;;;;11.15;2.42;;;23.40;57.20;;;;;;7392664;19;20446;-77
2022/07/07 07:38:54;;;;;;;10.02;2.20;;;23.50;57.10;;;;;;7393428;19;20019;-77
2022/07/07 07:41:25;;;;;;;6.68;1.90;;;23.60;56.80;;;;;;7393746;19;20035;-77
2022/07/07 07:43:53;;;;;;;;;;;23.50;56.80;;;;;;7396158;19;20384;-77
2022/07/07 07:46:22;;;;;;;4.57;2.00;;;23.70;56.50;;;;;;7395339;19;20034;-77
2022/07/07 07:48:51;;;;;;;4.50;2.00;;;23.60;56.20;;;;;;7392952;19;20682;-77
2022/07/07 07:51:19;;;;;;;10.93;2.40;;;23.60;56.30;;;;;;7394186;19;20168;-77
2022/07/07 07:53:48;;;;;;;10.05;2.38;;;23.60;56.30;;;;;;7396102;19;20049;-77
2022/07/07 07:56:17;;;;;;;11.38;2.10;;;23.40;56.40;;;;;;7393163;19;20106;-77
2022/07/07 07:58:48;;;;;;;9.40;1.75;;;23.10;57.10;;;;;;7392063;19;20025;-77
2022/07/07 08:01:17;;;;;;;;;;;23.20;57.10;;;;;;7395033;19;20090;-77
2022/07/07 08:03:46;;;;;;;7.32;1.90;;;23.40;57.10;;;;;;7391522;19;19990;-77
2022/07/07 08:06:14;;;;;;;9.10;2.10;;;23.50;57.00;;;;;;7391489;19;20726;-77
2022/07/07 08:08:43;;;;;;;5.65;2.17;;;23.50;56.40;;;;;;7394286;19;20032;-78
2022/07/07 08:11:12;;;;;;;6.35;2.00;;;23.60;56.60;;;;;;7394151;19;20097;-77
2022/07/07 08:13:40;;;;;;;5.85;2.00;;;23.50;56.50;;;;;;7393396;19;20028;-77
2022/07/07 08:16:12;;;;;;;6.57;1.67;;;23.50;56.70;;;;;;7392512;19;20094;-77
2022/07/07 08:18:40;;;;;;;5.75;1.50;;;23.50;56.60;;;;;;7391928;19;20097;-77
2022/07/07 08:21:09;;;;;;;4.28;1.45;;;23.30;56.30;;;;;;7394310;19;20017;-77
2022/07/07 08:23:38;;;;;;;6.68;1.73;;;23.40;56.30;;;;;;7393309;19;20033;-77
2022/07/07 08:26:07;;;;;;;11.10;1.60;;;23.50;56.40;;;;;;7391597;19;20026;-77
2022/07/07 08:28:39;;;;;;;4.63;1.50;;;23.60;55.70;;;;;;7392133;19;20043;-77
2022/07/07 08:31:11;;;;;;;4.47;1.20;;;23.70;55.30;;;;;;7394319;19;20015;-76
2022/07/07 08:33:40;;;;;;;7.13;1.33;;;23.80;54.70;;;;;;7392740;19;20784;-76
2022/07/07 08:36:09;;;;;;;3.08;1.20;;;24.00;54.50;;;;;;7391845;19;20532;-79
2022/07/07 08:38:38;;;;;;;7.93;2.10;;;23.90;53.80;;;;;;7392620;19;20028;-76
2022/07/07 08:41:07;;;;;;;3.33;1.20;;;24.00;54.20;;;;;;7393263;19;20019;-76
2022/07/07 08:43:36;;;;;;;4.95;1.00;;;24.20;54.30;;;;;;7392717;19;20025;-76
2022/07/07 08:46:05;;;;;;;2.88;1.02;;;24.30;54.10;;;;;;7389640;19;20090;-76
2022/07/07 08:48:36;;;;;;;5.40;1.30;;;24.40;53.80;;;;;;7392277;19;20410;-77
2022/07/07 08:51:05;;;;;;;;;;;24.60;53.50;;;;;;7394413;19;20018;-77
2022/07/07 08:53:36;;;;;;;5.28;1.45;;;24.70;53.20;;;;;;7390573;19;19926;-77
2022/07/07 08:56:07;;;;;;;10.85;1.58;;;24.50;53.10;;;;;;7390310;19;20399;-77
2022/07/07 08:58:36;;;;;;;5.30;1.35;;;24.40;53.60;;;;;;7390243;19;20026;-76
2022/07/07 09:01:06;;;;;;;5.47;1.20;;;24.10;53.60;;;;;;7391053;19;20015;-77
2022/07/07 09:03:38;;;;;;;4.40;1.48;;;24.00;54.10;;;;;;7391514;19;20315;-76
2022/07/07 09:06:07;;;;;;;2.60;1.10;;;23.90;54.30;;;;;;7392875;19;20031;-77
2022/07/07 09:08:37;;;;;;;4.82;1.48;;;23.90;54.60;;;;;;7389584;19;20242;-77
2022/07/07 09:11:09;;;;;;;3.55;1.30;;;23.60;55.10;;;;;;7391701;19;20022;-76
2022/07/07 09:13:38;;;;;;;5.78;1.10;;;23.70;54.70;;;;;;7391052;19;20097;-77
2022/07/07 09:16:16;;;;;;;2.22;1.00;;;23.90;54.30;;;;;;7392161;19;20029;-76
2022/07/07 09:18:49;;;;;;;2.25;1.13;;;24.00;54.40;;;;;;7392339;19;20036;-75
2022/07/07 09:21:31;;;;;;;5.63;1.10;;;24.20;54.10;;;;;;7392436;19;20086;-76
2022/07/07 09:24:02;;;;;;;3.10;1.20;;;24.40;53.50;;;;;;7393273;19;20022;-77
2022/07/07 09:26:42;;;;;;;2.72;0.93;;;24.60;53.50;;;;;;7395327;19;20045;-76
2022/07/07 09:29:13;;;;;;;5.70;1.40;;;24.80;53.00;;;;;;7396677;19;20102;-77
2022/07/07 09:31:58;;;;;;;;;;;24.90;52.60;;;;;;7396308;19;20022;-77
2022/07/07 09:34:32;;;;;;;3.33;0.90;;;25.10;52.50;;;;;;7396846;19;19958;-77
2022/07/07 09:39:48;;;;;;;3.65;1.08;;;25.30;51.80;;;;;;7396964;19;20013;-78
2022/07/07 09:42:24;;;;;;;5.03;1.23;;;25.30;52.10;;;;;;7395793;19;20030;-78
2022/07/07 09:44:55;;;;;;;1.67;0.90;;;25.10;52.70;;;;;;7399114;19;20094;-77
2022/07/07 09:47:25;;;;;;;;;;;25.00;52.40;;;;;;7397543;19;20036;-77
2022/07/07 09:50:04;;;;;;;1.70;0.90;;;25.20;52.50;;;;;;7396332;19;20413;-77
2022/07/07 09:52:35;;;;;;;4.88;0.90;;;25.30;52.50;;;;;;7398725;19;20754;-77
2022/07/07 09:55:06;;;;;;;1.05;0.80;;;25.40;51.80;;;;;;7396512;19;20025;-77
2022/07/07 09:57:35;;;;;;;4.00;1.10;;;25.30;51.00;;;;;;7398628;19;20048;-77
2022/07/07 10:00:04;;;;;;;1.10;0.90;;;25.40;51.10;;;;;;7395289;19;20090;-77
2022/07/07 10:02:33;;;;;;;6.85;1.00;;;25.40;51.50;;;;;;7398521;19;20471;-77
2022/07/07 10:05:05;;;;;;;2.42;0.95;;;25.30;51.60;;;;;;7397429;19;20118;-77
2022/07/07 10:07:36;;;;;;;2.15;0.90;;;25.10;51.80;;;;;;7397999;19;20105;-77
2022/07/07 10:10:06;;;;;;;;;;;24.80;52.10;;;;;;7397904;19;20445;-78
2022/07/07 10:12:38;;;;;;;2.83;0.80;;;24.80;52.40;;;;;;7395816;19;19925;-77
2022/07/07 10:15:11;;;;;;;1.75;0.80;;;24.70;52.70;;;;;;7395701;19;20022;-77
2022/07/07 10:17:42;;;;;;;5.13;1.25;;;24.70;52.90;;;;;;7397779;19;20015;-77
2022/07/07 10:20:14;;;;;;;3.65;0.93;;;24.60;53.10;;;;;;7396256;19;20025;-77
2022/07/07 10:22:43;;;;;;;2.38;1.10;;;24.50;53.40;;;;;;7397884;19;20024;-77
2022/07/07 10:25:13;;;;;;;1.48;0.77;;;24.40;54.00;;;;;;7397871;19;20026;-77
2022/07/07 10:27:44;;;;;;;7.82;0.95;;;24.40;54.20;;;;;;7395517;19;20041;-78
2022/07/07 10:30:30;;;;;;;5.05;1.20;;;24.20;54.30;;;;;;7393042;19;20077;-76
2022/07/07 10:33:01;;;;;;;5.15;1.05;;;24.20;54.80;;;;;;7397678;19;20011;-76
2022/07/07 10:35:45;;;;;;;2.15;1.00;;;24.10;55.60;;;;;;7397466;19;20050;-76
2022/07/07 10:38:18;;;;;;;4.28;0.90;;;24.10;54.90;;;;;;7394313;19;20044;-77
2022/07/07 10:40:54;;;;;;;2.50;1.10;;;24.00;55.10;;;;;;7393891;19;20094;-77
2022/07/07 10:43:28;;;;;;;3.63;1.20;;;24.30;55.00;;;;;;7393336;19;20022;-76
2022/07/07 10:45:58;;;;;;;1.98;0.73;;;24.40;54.30;;;;;;7395512;19;20032;-76
2022/07/07 10:48:42;;;;;;;2.05;0.82;;;24.60;53.50;;;;;;7395811;19;20086;-77
2022/07/07 10:51:21;;;;;;;3.35;0.93;;;24.70;53.20;;;;;;7394193;19;20028;-77
2022/07/07 10:54:02;;;;;;;4.13;1.15;;;24.70;52.70;;;;;;7393927;19;20022;-77
2022/07/07 10:57:06;;;;;;;3.05;0.90;;;24.80;53.00;;;;;;7393036;19;20785;-78
2022/07/07 11:00:07;;;;;;;4.00;1.15;;;25.10;52.40;;;;;;7391961;19;20038;-77
2022/07/07 11:02:37;;;;;;;4.88;1.00;;;25.30;51.90;;;;;;7392986;19;20010;-77
2022/07/07 11:05:22;;;;;;;2.00;1.00;;;25.50;51.50;;;;;;7396292;19;20019;-77
2022/07/07 11:08:09;;;;;;;1.95;1.00;;;25.70;51.40;;;;;;7395899;19;20621;-77
2022/07/07 11:10:53;;;;;;;3.58;0.90;;;25.70;50.60;;;;;;7393994;19;20014;-77
2022/07/07 11:13:25;;;;;;;4.80;1.10;;;25.90;49.80;;;;;;7393065;19;20026;-77
2022/07/07 11:16:16;;;;;;;3.00;1.00;;;25.90;49.50;;;;;;7392984;19;20020;-77
2022/07/07 11:18:45;;;;;;;2.85;1.20;;;25.60;49.10;;;;;;7395264;19;20043;-77
2022/07/07 11:21:14;;;;;;;5.07;1.35;;;25.70;49.60;;;;;;7396077;19;20021;-77
2022/07/07 11:23:52;;;;;;;5.78;2.10;;;25.20;50.20;;;;;;7394403;19;20491;-77
2022/07/07 11:26:23;;;;;;;4.47;1.35;;;25.40;50.60;;;;;;7394847;19;20345;-77
2022/07/07 11:28:53;;;;;;;2.90;1.40;;;25.40;50.20;;;;;;7394566;19;20028;-77
2022/07/07 11:31:24;;;;;;;2.00;1.17;;;25.50;49.90;;;;;;7394290;19;20018;-77
2022/07/07 11:33:54;;;;;;;2.22;1.30;;;25.50;50.10;;;;;;7394165;19;20022;-77
2022/07/07 11:36:25;;;;;;;4.45;1.15;;;25.60;49.90;;;;;;7395141;19;20497;-77
2022/07/07 11:38:57;;;;;;;5.18;1.13;;;25.60;50.00;;;;;;7394327;19;20451;-77
2022/07/07 11:41:39;;;;;;;1.50;1.05;;;25.60;50.00;;;;;;7395596;19;20019;-77
2022/07/07 11:44:09;;;;;;;5.07;1.38;;;25.40;50.20;;;;;;7394066;19;20029;-77
2022/07/07 11:46:40;;;;;;;5.13;1.50;;;25.30;50.30;;;;;;7394380;19;20044;-77
2022/07/07 11:49:09;;;;;;;3.90;1.50;;;25.20;50.20;;;;;;7395570;19;20031;-77
2022/07/07 11:51:39;;;;;;;2.67;1.40;;;25.00;50.10;;;;;;7393582;19;20024;-77
2022/07/07 11:54:08;;;;;;;3.22;1.30;;;24.90;50.20;;;;;;7395273;19;20029;-77
2022/07/07 11:56:37;;;;;;;11.00;1.50;;;24.90;50.30;;;;;;7393444;19;20021;-77
2022/07/07 11:59:07;;;;;;;3.95;1.58;;;24.90;50.40;;;;;;7393961;19;20025;-77
2022/07/07 12:01:37;;;;;;;3.03;1.42;;;25.10;50.60;;;;;;7391720;19;20018;-77
2022/07/07 12:04:20;;;;;;;4.40;1.50;;;24.90;50.40;;;;;;7394685;19;20026;-77
2022/07/07 12:06:50;;;;;;;3.00;1.15;;;24.90;50.40;;;;;;7392620;19;20033;-77
2022/07/07 12:09:19;;;;;;;2.88;1.10;;;25.20;50.20;;;;;;7394862;19;20011;-77
2022/07/07 12:11:48;;;;;;;5.13;1.20;;;25.20;50.00;;;;;;7391804;19;20015;-77
2022/07/07 12:14:18;;;;;;;3.47;1.27;;;25.10;48.90;;;;;;7392513;19;20018;-77
2022/07/07 12:16:49;;;;;;;2.20;0.93;;;25.10;49.20;;;;;;7391549;19;20086;-77
2022/07/07 12:19:21;;;;;;;6.32;1.17;;;25.10;49.00;;;;;;7393048;19;20110;-77
2022/07/07 12:21:51;;;;;;;5.55;1.33;;;25.30;49.20;;;;;;7393780;19;20056;-77
2022/07/07 12:24:23;;;;;;;2.58;1.40;;;25.50;48.80;;;;;;7393669;19;20090;-77
2022/07/07 12:26:55;;;;;;;5.53;1.40;;;25.60;48.70;;;;;;7392101;19;20113;-77
2022/07/07 12:29:25;;;;;;;2.50;1.40;;;25.80;48.70;;;;;;7393861;19;20021;-77
2022/07/07 12:31:53;;;;;;;2.75;1.35;;;25.90;48.60;;;;;;7391451;19;20513;-76
2022/07/07 12:34:25;;;;;;;5.40;1.50;;;25.80;47.90;;;;;;7390825;19;20014;-77
2022/07/07 12:36:54;;;;;;;2.45;1.23;;;25.70;48.40;;;;;;7390726;19;20304;-77
2022/07/07 12:39:23;;;;;;;2.42;1.33;;;25.40;48.60;;;;;;7392896;19;20022;-77
2022/07/07 12:41:55;;;;;;;7.63;1.50;;;25.50;49.00;;;;;;7392262;19;20655;-77
2022/07/07 12:44:26;;;;;;;4.93;1.20;;;25.40;48.80;;;;;;7392991;19;20566;-77
2022/07/07 12:46:59;;;;;;;3.22;1.50;;;25.60;49.00;;;;;;7393663;19;20034;-77
2022/07/07 12:49:30;;;;;;;1.77;1.27;;;25.70;48.70;;;;;;7393582;19;20013;-77
2022/07/07 12:51:59;;;;;;;4.35;1.40;;;25.90;48.30;;;;;;7391192;19;20097;-77
2022/07/07 12:54:33;;;;;;;6.90;1.48;;;26.00;47.90;;;;;;7393057;19;20026;-77
2022/07/07 12:57:04;;;;;;;2.55;1.25;;;25.90;48.30;;;;;;7393254;19;20028;-77
2022/07/07 12:59:38;;;;;;;3.55;1.27;;;25.80;48.30;;;;;;7391623;19;20030;-77
2022/07/07 13:02:09;;;;;;;3.30;1.20;;;25.80;48.30;;;;;;7390858;19;20094;-77
2022/07/07 13:04:42;;;;;;;2.07;1.13;;;25.70;48.50;;;;;;7393818;19;20082;-77
2022/07/07 13:07:11;;;;;;;5.63;1.33;;;25.30;49.10;;;;;;7390806;19;20022;-76
2022/07/07 13:09:40;;;;;;;4.78;1.30;;;25.40;49.60;;;;;;7391508;19;20047;-77
2022/07/07 13:12:13;;;;;;;5.50;1.50;;;25.30;49.80;;;;;;7392010;19;20035;-76